Time;durP1;ratioP1;P1;durP2;ratioP2;P2;SDS_P1;SDS_P2;PMS_P1;PMS_P2;Temp;Humidity;BMP_temperature;BMP_pressure;BME280_temperature;BME280_humidity;BME280_pressure;Samples;Min_cycle;Max_cycle;Signal;HPM_P1;HPM_P2
2022/01/23 00:02:45;;;;;;;22.87;10.63;;;-2.80;99.90;;;;;;5072661;28;20043;-64
2022/01/23 00:05:11;;;;;;;17.13;8.03;;;-2.90;99.90;;;;;;5072575;28;20473;-64
2022/01/23 00:07:39;;;;;;;18.40;8.17;;;-2.90;99.90;;;;;;5072466;28;20071;-63
2022/01/23 00:10:05;;;;;;;22.13;9.57;;;-3.00;99.90;;;;;;5072553;28;20025;-63
2022/01/23 00:12:37;;;;;;;21.10;10.27;;;-3.00;99.90;;;;;;5072500;28;20245;-63
2022/01/23 00:17:48;;;;;;;19.03;9.73;;;-2.90;99.90;;;;;;5072480;28;20269;-63
2022/01/23 00:20:13;;;;;;;17.23;8.83;;;-2.90;99.90;;;;;;5072445;28;20028;-63
2022/01/23 00:22:47;;;;;;;17.13;8.87;;;-2.90;99.90;;;;;;5072152;28;20104;-63
2022/01/23 00:30:43;;;;;;;22.30;11.60;;;-3.00;99.90;;;;;;5076009;28;20073;-63
2022/01/23 00:33:11;;;;;;;26.70;12.80;;;-3.00;99.90;;;;;;5075932;28;20540;-63
2022/01/23 00:35:40;;;;;;;24.10;10.53;;;-3.10;99.90;;;;;;5075457;28;20140;-63
2022/01/23 00:38:08;;;;;;;22.97;10.23;;;-3.10;99.90;;;;;;5057822;28;20119;-63
2022/01/23 00:40:35;;;;;;;20.67;9.13;;;-3.10;99.90;;;;;;5075451;28;20111;-63
2022/01/23 00:43:06;;;;;;;23.03;10.30;;;-3.20;99.90;;;;;;5075762;28;20020;-63
2022/01/23 00:45:34;;;;;;;20.00;9.80;;;-3.20;99.90;;;;;;5075670;28;20044;-63
2022/01/23 00:48:07;;;;;;;19.17;9.10;;;-3.20;99.90;;;;;;5057573;28;20044;-63
2022/01/23 00:50:36;;;;;;;19.90;9.67;;;-3.20;99.90;;;;;;5075594;28;20115;-64
2022/01/23 00:53:04;;;;;;;18.83;9.50;;;-3.30;99.90;;;;;;5057526;28;20445;-65
2022/01/23 00:55:30;;;;;;;23.03;10.00;;;-3.30;99.90;;;;;;5075444;28;20028;-65
2022/01/23 00:57:56;;;;;;;18.40;9.00;;;-3.20;99.90;;;;;;5075531;28;20029;-65
2022/01/23 01:00:23;;;;;;;20.47;9.70;;;-3.20;99.90;;;;;;5075470;28;20036;-65
2022/01/23 01:02:49;;;;;;;18.27;9.23;;;-3.20;99.90;;;;;;5057372;28;20034;-63
2022/01/23 01:05:16;;;;;;;22.10;9.03;;;-3.20;99.90;;;;;;5075343;28;20029;-63
2022/01/23 01:07:41;;;;;;;21.30;10.53;;;-3.20;99.90;;;;;;5075258;28;20039;-65
2022/01/23 01:10:14;;;;;;;23.20;11.20;;;-3.20;99.90;;;;;;5075219;28;20385;-64
2022/01/23 01:12:45;;;;;;;29.17;11.50;;;-3.10;99.90;;;;;;5057317;28;20104;-64
2022/01/23 01:31:35;;;;;;;24.27;9.70;;;-3.00;99.90;;;;;;5074614;28;20059;-63
2022/01/23 01:34:12;;;;;;;21.80;9.60;;;-3.00;99.90;;;;;;5074842;28;20021;-65
2022/01/23 01:39:10;;;;;;;29.53;12.03;;;-3.00;99.90;;;;;;5073728;28;20029;-65
2022/01/23 01:41:38;;;;;;;32.40;11.43;;;-3.00;99.90;;;;;;5074312;28;20063;-64
2022/01/23 01:44:05;;;;;;;27.60;10.77;;;-3.00;99.90;;;;;;5074329;28;20385;-64
2022/01/23 01:46:31;;;;;;;21.13;10.13;;;-2.90;99.90;;;;;;5074477;28;20465;-64
2022/01/23 01:48:57;;;;;;;29.40;11.03;;;-3.00;99.90;;;;;;5074588;28;20059;-63
2022/01/23 01:51:24;;;;;;;25.73;9.70;;;-3.00;99.90;;;;;;5074446;28;20020;-63
2022/01/23 01:53:57;;;;;;;22.77;9.73;;;-3.00;99.90;;;;;;5074449;28;20035;-62
2022/01/23 01:56:23;;;;;;;23.27;10.43;;;-3.10;99.90;;;;;;5074368;28;20028;-63
2022/01/23 02:09:35;;;;;;;39.63;15.90;;;-3.30;99.90;;;;;;5073938;28;20111;-63
2022/01/23 02:14:45;;;;;;;27.07;10.77;;;-3.40;99.90;;;;;;5074062;28;20035;-64
2022/01/23 02:17:55;;;;;;;24.63;11.13;;;-3.40;99.90;;;;;;5055781;28;20039;-65
2022/01/23 02:55:47;;;;;;;23.90;10.73;;;-3.60;99.90;;;;;;5073359;28;20077;-63
2022/01/23 02:58:17;;;;;;;30.83;11.13;;;-3.60;99.90;;;;;;5073265;28;20028;-64
2022/01/23 03:01:28;;;;;;;19.13;9.70;;;-3.70;99.90;;;;;;5055289;28;20054;-64
2022/01/23 03:03:36;;;;;;;18.87;8.50;;;;;;;;;;5059321;28;20036;-64
2022/01/23 03:14:17;;;;;;;16.35;7.85;;;-3.80;99.90;;;;;;5073155;28;20094;-63
2022/01/23 03:25:06;;;;;;;17.30;8.80;;;-3.60;99.90;;;;;;5073035;28;20495;-63
2022/01/23 03:27:53;;;;;;;18.93;8.80;;;-3.60;99.90;;;;;;5072906;28;20059;-64
2022/01/23 03:30:29;;;;;;;20.63;10.00;;;-3.50;99.90;;;;;;5054906;28;20024;-64
2022/01/23 03:32:55;;;;;;;20.50;8.80;;;-3.60;99.90;;;;;;5072969;28;20020;-64
2022/01/23 03:35:22;;;;;;;22.87;10.17;;;-3.50;99.90;;;;;;5072750;28;20115;-63
2022/01/23 03:37:48;;;;;;;20.23;10.07;;;-3.60;99.90;;;;;;5073147;28;20037;-64
2022/01/23 03:40:16;;;;;;;16.07;8.67;;;-3.60;99.90;;;;;;5072783;28;20020;-63
2022/01/23 03:42:44;;;;;;;16.43;7.80;;;-3.60;99.90;;;;;;5072814;28;20029;-64
2022/01/23 03:50:42;;;;;;;14.17;7.70;;;-3.70;99.90;;;;;;5072800;28;20354;-64
2022/01/23 03:53:08;;;;;;;18.60;7.83;;;-3.70;99.90;;;;;;5073021;28;20035;-65
2022/01/23 03:55:35;;;;;;;11.43;6.63;;;-3.70;99.90;;;;;;5054648;28;20074;-65
2022/01/23 03:58:01;;;;;;;13.23;6.87;;;-3.80;99.90;;;;;;5072911;28;20025;-64
2022/01/23 04:00:27;;;;;;;14.93;7.90;;;-3.80;99.90;;;;;;5072955;28;20090;-65
2022/01/23 04:02:53;;;;;;;14.80;7.60;;;-3.80;99.90;;;;;;5057459;28;20025;-63
2022/01/23 04:05:19;;;;;;;15.17;7.43;;;-3.80;99.90;;;;;;5076482;28;20043;-63
2022/01/23 04:07:45;;;;;;;16.80;7.33;;;-3.80;99.90;;;;;;5076076;28;20503;-63
2022/01/23 04:10:14;;;;;;;16.43;7.50;;;-3.80;99.90;;;;;;5076365;28;20025;-63
2022/01/23 04:15:36;;;;;;;13.80;7.00;;;-3.80;99.90;;;;;;5076323;28;20123;-63
2022/01/23 04:19:03;;;;;;;18.40;8.30;;;-3.80;99.90;;;;;;5076214;28;20033;-64
2022/01/23 04:32:06;;;;;;;18.27;9.17;;;-3.70;99.90;;;;;;5075804;28;20036;-63
2022/01/23 04:35:42;;;;;;;18.20;8.57;;;-3.70;99.90;;;;;;5075724;28;20056;-63
2022/01/23 04:45:43;;;;;;;29.70;13.37;;;-3.80;99.90;;;;;;5075751;28;20396;-64
2022/01/23 04:59:55;;;;;;;17.33;10.00;;;;;;;;;;4974405;28;20116;-64
2022/01/23 05:04:46;;;;;;;20.83;9.93;;;-3.90;99.90;;;;;;4974276;28;20034;-63
2022/01/23 05:07:14;;;;;;;24.33;10.43;;;-4.00;99.90;;;;;;4957810;28;20103;-64
2022/01/23 05:09:40;;;;;;;27.93;12.37;;;-4.00;99.90;;;;;;4974227;28;20126;-64
2022/01/23 05:12:10;;;;;;;23.47;9.30;;;-4.00;99.90;;;;;;4974119;28;20416;-63
2022/01/23 05:14:42;;;;;;;22.20;9.23;;;-4.00;99.90;;;;;;4972981;28;20134;-63
2022/01/23 05:17:11;;;;;;;;;;;-4.00;99.90;;;;;;4958231;28;20035;-63
2022/01/23 05:19:38;;;;;;;18.60;9.20;;;-4.00;99.90;;;;;;4973947;28;19906;-64
2022/01/23 05:24:40;;;;;;;17.47;9.03;;;-4.00;99.90;;;;;;4973854;28;20062;-63
2022/01/23 05:27:09;;;;;;;19.23;9.80;;;-4.00;99.90;;;;;;5040115;28;20044;-63
2022/01/23 05:29:35;;;;;;;23.87;10.13;;;-3.80;99.90;;;;;;5056938;28;20024;-64
2022/01/23 05:32:02;;;;;;;19.17;9.50;;;-3.70;99.90;;;;;;5074896;28;20169;-63
2022/01/23 05:34:28;;;;;;;20.60;10.97;;;-3.60;99.90;;;;;;5074610;28;20172;-64
2022/01/23 05:36:54;;;;;;;29.00;12.70;;;-3.50;99.90;;;;;;5056783;28;20044;-63
2022/01/23 05:39:23;;;;;;;30.97;13.50;;;-3.40;99.90;;;;;;5056772;28;20392;-63
2022/01/23 05:42:04;;;;;;;25.37;11.73;;;-3.30;99.90;;;;;;5074261;28;20099;-63
2022/01/23 05:44:29;;;;;;;27.47;12.60;;;-3.30;99.90;;;;;;5070921;28;20469;-63
2022/01/23 05:46:55;;;;;;;30.60;13.73;;;-3.20;99.90;;;;;;5073393;28;20032;-64
2022/01/23 05:49:22;;;;;;;32.07;13.67;;;-3.20;99.90;;;;;;5073229;28;20024;-65
2022/01/23 05:51:48;;;;;;;36.10;16.13;;;-3.20;99.90;;;;;;5073123;28;20028;-63
2022/01/23 05:54:14;;;;;;;35.73;15.70;;;-3.20;99.90;;;;;;5055044;28;20032;-64
2022/01/23 05:56:40;;;;;;;30.17;13.50;;;-3.20;99.90;;;;;;5073091;28;20024;-63
2022/01/23 05:59:05;;;;;;;32.53;14.27;;;-3.20;99.90;;;;;;5074174;28;20028;-65
2022/01/23 06:01:32;;;;;;;26.43;12.87;;;-3.10;99.90;;;;;;5074268;28;20056;-64
2022/01/23 06:03:57;;;;;;;30.60;12.00;;;-3.00;99.90;;;;;;5074262;28;20040;-64
2022/01/23 06:06:23;;;;;;;23.67;10.97;;;-2.90;99.90;;;;;;5074149;28;20045;-64
2022/01/23 06:08:49;;;;;;;25.90;13.83;;;-2.80;99.90;;;;;;5074411;28;20035;-65
2022/01/23 06:11:16;;;;;;;31.03;15.33;;;-2.80;99.90;;;;;;5074101;28;20025;-63
2022/01/23 06:13:42;;;;;;;23.73;12.87;;;-2.70;99.90;;;;;;5074025;28;20101;-64
2022/01/23 06:16:07;;;;;;;26.30;11.90;;;-2.70;99.90;;;;;;5056051;28;20458;-65
2022/01/23 06:18:36;;;;;;;23.63;12.90;;;-2.70;99.90;;;;;;5074172;28;20025;-64
2022/01/23 06:21:02;;;;;;;26.70;12.83;;;-2.70;99.90;;;;;;5055026;28;20024;-64
2022/01/23 06:23:31;;;;;;;28.40;12.90;;;-2.70;99.90;;;;;;5072854;28;20024;-64
2022/01/23 06:25:57;;;;;;;25.20;12.90;;;-2.70;99.90;;;;;;5055551;28;20052;-66
2022/01/23 06:28:44;;;;;;;24.53;12.53;;;-2.70;99.90;;;;;;5055585;28;20036;-64
2022/01/23 06:31:10;;;;;;;29.33;15.27;;;-2.80;99.90;;;;;;5055800;28;20060;-65
2022/01/23 06:33:36;;;;;;;34.07;16.80;;;-2.80;99.90;;;;;;5073730;28;20495;-65
2022/01/23 06:36:04;;;;;;;33.10;18.10;;;-2.80;99.90;;;;;;5073024;28;20044;-63
2022/01/23 06:38:30;;;;;;;35.63;17.80;;;-2.80;99.90;;;;;;5055447;28;20024;-64
2022/01/23 06:40:56;;;;;;;33.17;16.27;;;-2.90;99.90;;;;;;5073792;28;20028;-64
2022/01/23 06:43:22;;;;;;;38.17;17.53;;;-2.90;99.90;;;;;;5073024;28;20033;-64
2022/01/23 06:45:48;;;;;;;45.53;18.30;;;-2.90;99.90;;;;;;5073405;28;20029;-65
2022/01/23 06:48:14;;;;;;;46.33;21.30;;;-2.90;99.90;;;;;;5073265;28;20036;-64
2022/01/23 06:50:40;;;;;;;48.53;22.47;;;-2.90;99.90;;;;;;5073554;28;20115;-63
2022/01/23 06:53:06;;;;;;;54.90;26.10;;;-2.90;99.90;;;;;;5072951;28;20028;-63
2022/01/23 06:55:32;;;;;;;58.83;27.10;;;-3.00;99.90;;;;;;5055151;28;20038;-63
2022/01/23 06:57:58;;;;;;;53.07;25.07;;;-2.90;99.90;;;;;;5054861;28;20028;-63
2022/01/23 07:00:24;;;;;;;59.37;29.27;;;-2.90;99.90;;;;;;5073533;28;20036;-64
2022/01/23 07:02:49;;;;;;;44.67;22.07;;;-2.80;99.90;;;;;;5073483;28;20027;-63
2022/01/23 07:05:15;;;;;;;33.47;14.57;;;-2.70;99.90;;;;;;5073050;28;20020;-63
2022/01/23 07:07:41;;;;;;;30.97;15.97;;;-2.70;99.90;;;;;;5072988;28;20041;-64
2022/01/23 07:10:07;;;;;;;24.30;12.30;;;-2.50;99.90;;;;;;5073080;28;20033;-64
2022/01/23 07:12:33;;;;;;;41.97;18.23;;;-2.40;99.90;;;;;;5054970;28;20033;-64
2022/01/23 07:14:59;;;;;;;38.97;18.57;;;-2.30;99.90;;;;;;5055013;28;20032;-63
2022/01/23 07:17:25;;;;;;;51.40;26.37;;;-2.20;99.90;;;;;;5072923;28;20206;-63
2022/01/23 07:19:51;;;;;;;41.53;21.53;;;-2.10;99.90;;;;;;5072992;28;20029;-64
2022/01/23 07:22:16;;;;;;;32.17;16.23;;;-2.00;99.90;;;;;;5072911;28;20366;-64
2022/01/23 07:24:42;;;;;;;42.17;19.23;;;-1.90;99.90;;;;;;5072920;28;20036;-63
2022/01/23 07:27:19;;;;;;;37.10;19.10;;;-1.80;99.90;;;;;;5054777;28;20041;-64
2022/01/23 07:29:46;;;;;;;43.63;21.67;;;-1.70;99.90;;;;;;5072952;28;20025;-64
2022/01/23 07:32:12;;;;;;;42.00;20.40;;;-1.80;99.90;;;;;;5072794;28;20025;-64
2022/01/23 07:34:39;;;;;;;51.77;24.70;;;-1.80;99.90;;;;;;5072447;28;20078;-63
2022/01/23 07:37:05;;;;;;;63.03;26.07;;;-1.80;99.90;;;;;;5074478;28;20408;-64
2022/01/23 07:39:31;;;;;;;50.70;21.43;;;;;;;;;;5056725;28;20055;-63
2022/01/23 07:41:57;;;;;;;45.90;22.00;;;;;;;;;;5074188;28;20036;-63
2022/01/23 07:44:23;;;;;;;52.43;23.87;;;;;;;;;;5076264;28;20023;-62
2022/01/23 07:46:51;;;;;;;64.93;28.13;;;;;;;;;;5076400;28;20115;-63
2022/01/23 07:49:18;;;;;;;49.13;23.43;;;;;;;;;;5076793;28;20028;-64
2022/01/23 07:51:44;;;;;;;56.10;23.33;;;;;;;;;;5076711;28;20016;-65
2022/01/23 07:54:10;;;;;;;52.33;24.33;;;;;;;;;;5058578;28;20056;-65
2022/01/23 07:56:38;;;;;;;54.27;24.13;;;;;;;;;;5076299;28;20358;-64
2022/01/23 07:59:05;;;;;;;59.70;26.57;;;;;;;;;;5076096;28;20423;-65
2022/01/23 08:01:31;;;;;;;51.33;23.70;;;;;;;;;;5076483;28;20103;-67
2022/01/23 08:03:58;;;;;;;52.70;26.07;;;;;;;;;;5058377;28;20054;-65
2022/01/23 08:06:28;;;;;;;55.67;26.47;;;;;;;;;;5076304;28;20031;-65
2022/01/23 08:08:57;;;;;;;54.60;28.15;;;;;;;;;;5076356;28;20449;-65
2022/01/23 08:11:24;;;;;;;65.50;30.37;;;;;;;;;;5076308;28;20025;-65
2022/01/23 08:13:50;;;;;;;67.50;32.07;;;;;;;;;;5076363;28;20099;-65
2022/01/23 08:16:16;;;;;;;66.40;32.67;;;;;;;;;;5076217;28;20031;-65
2022/01/23 08:18:42;;;;;;;52.87;27.93;;;;;;;;;;5073918;28;20016;-69
2022/01/23 08:21:09;;;;;;;61.60;30.13;;;;;;;;;;5073299;28;20028;-63
2022/01/23 08:23:38;;;;;;;64.90;31.53;;;;;;;;;;5057463;28;20046;-68
2022/01/23 08:26:04;;;;;;;76.30;34.40;;;;;;;;;;5057981;28;20028;-64
2022/01/23 08:28:30;;;;;;;62.60;29.10;;;;;;;;;;5075831;28;20078;-64
2022/01/23 08:30:56;;;;;;;46.53;21.73;;;;;;;;;;5075916;28;20019;-65
2022/01/23 08:33:24;;;;;;;77.15;29.50;;;;;;;;;;5076137;28;20142;-65
2022/01/23 08:35:53;;;;;;;27.73;15.13;;;;;;;;;;5075396;28;20041;-63
2022/01/23 08:38:19;;;;;;;138.38;42.33;;;;;;;;;;5075810;28;20080;-64
2022/01/23 08:40:58;;;;;;;20.25;11.27;;;;;;;;;;5057987;28;20049;-64
2022/01/23 08:43:25;;;;;;;68.93;24.13;;;;;;;;;;5075801;28;20131;-64
2022/01/23 08:45:52;;;;;;;140.48;45.90;;;;;;;;;;5057649;28;20029;-64
2022/01/23 08:48:19;;;;;;;101.75;39.28;;;;;;;;;;5057391;28;20039;-64
2022/01/23 08:50:45;;;;;;;69.18;26.00;;;;;;;;;;5075592;28;20111;-67
2022/01/23 08:53:11;;;;;;;80.47;29.02;;;;;;;;;;5075718;28;20119;-64
2022/01/23 08:55:37;;;;;;;100.63;47.70;;;;;;;;;;5075481;28;20081;-65
2022/01/23 08:58:03;;;;;;;26.85;14.48;;;;;;;;;;5057405;28;20056;-63
2022/01/23 09:00:30;;;;;;;20.85;11.13;;;;;;;;;;5057139;28;20029;-64
2022/01/23 09:02:56;;;;;;;31.20;19.50;;;;;;;;;;5075288;28;20074;-64
2022/01/23 09:05:23;;;;;;;29.25;15.90;;;;;;;;;;5057126;28;20032;-63
2022/01/23 09:07:49;;;;;;;32.25;15.35;;;;;;;;;;5057171;28;20401;-65
2022/01/23 09:10:24;;;;;;;25.70;15.75;;;;;;;;;;5075197;28;20060;-63
2022/01/23 09:13:04;;;;;;;35.00;17.60;;;;;;;;;;5075158;28;20052;-63
2022/01/23 09:15:31;;;;;;;106.03;50.42;;;;;;;;;;5074862;28;20035;-63
2022/01/23 09:17:57;;;;;;;67.38;32.80;;;;;;;;;;5074880;28;20028;-67
2022/01/23 09:20:23;;;;;;;40.72;22.50;;;;;;;;;;5075193;28;20032;-67
2022/01/23 09:22:49;;;;;;;41.97;22.38;;;;;;;;;;5075099;28;20031;-66
2022/01/23 09:25:16;;;;;;;46.70;20.45;;;;;;;;;;5074749;28;20035;-68
2022/01/23 09:27:42;;;;;;;67.78;28.48;;;;;;;;;;5074220;28;20031;-69
2022/01/23 09:30:17;;;;;;;30.13;16.95;;;;;;;;;;5074659;28;20520;-67
2022/01/23 09:32:44;;;;;;;32.50;17.38;;;;;;;;;;5074779;28;20105;-67
2022/01/23 09:35:14;;;;;;;22.75;12.55;;;;;;;;;;5053185;28;20068;-68
2022/01/23 09:37:41;;;;;;;25.63;14.45;;;;;;;;;;5054733;28;20464;-66
2022/01/23 09:40:08;;;;;;;24.67;16.42;;;;;;;;;;5054804;28;20040;-64
2022/01/23 09:42:36;;;;;;;30.10;14.48;;;;;;;;;;5053363;28;20033;-64
2022/01/23 09:45:05;;;;;;;67.30;29.95;;;;;;;;;;5054516;28;20104;-64
2022/01/23 09:47:32;;;;;;;39.08;20.02;;;;;;;;;;5054496;28;20067;-64
2022/01/23 09:50:03;;;;;;;56.10;23.05;;;;;;;;;;5053715;28;20457;-63
2022/01/23 09:52:31;;;;;;;39.47;18.55;;;;;;;;;;5053201;28;20082;-64
2022/01/23 09:55:00;;;;;;;24.63;12.77;;;;;;;;;;5054241;28;20028;-64
2022/01/23 09:57:29;;;;;;;27.70;15.90;;;;;;;;;;5051861;28;20027;-64
2022/01/23 09:59:56;;;;;;;76.85;35.13;;;;;;;;;;5053515;28;20021;-65
2022/01/23 10:02:23;;;;;;;28.58;13.80;;;;;;;;;;5053858;28;20018;-65
2022/01/23 10:04:50;;;;;;;19.73;12.00;;;;;;;;;;5054189;28;20099;-64
2022/01/23 10:07:17;;;;;;;16.27;9.23;;;;;;;;;;5053538;28;20939;-63
2022/01/23 10:09:43;;;;;;;15.95;7.28;;;;;;;;;;5052595;28;20531;-67
2022/01/23 10:12:09;;;;;;;18.00;8.45;;;;;;;;;;5052689;28;20441;-64
2022/01/23 10:14:36;;;;;;;16.23;6.93;;;;;;;;;;5053878;28;20108;-65
2022/01/23 10:17:05;;;;;;;15.82;7.90;;;;;;;;;;5052234;28;20033;-64
2022/01/23 10:19:32;;;;;;;17.38;7.72;;;;;;;;;;5054063;28;20139;-66
2022/01/23 10:21:59;;;;;;;21.85;9.35;;;;;;;;;;5053721;28;20035;-64
2022/01/23 10:24:26;;;;;;;18.42;9.07;;;;;;;;;;5053756;28;20462;-64
2022/01/23 10:26:56;;;;;;;15.60;7.97;;;;;;;;;;5053645;28;20036;-67
2022/01/23 10:29:25;;;;;;;20.63;8.38;;;;;;;;;;5052429;28;20542;-64
2022/01/23 10:32:08;;;;;;;15.73;7.78;;;;;;;;;;5053613;28;20032;-66
2022/01/23 10:34:43;;;;;;;19.70;8.27;;;;;;;;;;5045446;28;20075;-66
2022/01/23 10:37:10;;;;;;;12.52;7.40;;;;;;;;;;5054602;28;20385;-67
2022/01/23 10:39:45;;;;;;;14.65;7.68;;;;;;;;;;5055414;28;20044;-66
2022/01/23 10:42:32;;;;;;;16.38;7.95;;;;;;;;;;5073419;28;20024;-67
2022/01/23 10:47:59;;;;;;;13.27;7.10;;;;;;;;;;5070556;28;20102;-64
2022/01/23 10:50:25;;;;;;;13.68;8.15;;;;;;;;;;5073280;28;20035;-64
2022/01/23 10:52:53;;;;;;;19.67;8.90;;;;;;;;;;5073327;28;20021;-64
2022/01/23 10:55:27;;;;;;;47.80;17.52;;;;;;;;;;5073089;28;20032;-65
2022/01/23 10:57:58;;;;;;;45.08;20.45;;;;;;;;;;5073263;28;20081;-65
2022/01/23 11:00:38;;;;;;;50.80;23.00;;;;;;;;;;5073124;28;20024;-63
2022/01/23 11:03:18;;;;;;;27.27;12.70;;;;;;;;;;5072713;28;20545;-64
2022/01/23 11:05:48;;;;;;;43.97;21.33;;;;;;;;;;5073041;28;20066;-63
2022/01/23 11:08:23;;;;;;;31.40;15.10;;;;;;;;;;5073012;28;20082;-63
2022/01/23 11:10:56;;;;;;;24.95;9.93;;;;;;;;;;5072375;28;20024;-63
2022/01/23 11:19:17;;;;;;;21.02;11.30;;;;;;;;;;5072631;28;20546;-65
2022/01/23 11:21:43;;;;;;;34.25;15.02;;;;;;;;;;5072572;28;20039;-64
2022/01/23 11:24:10;;;;;;;27.00;13.10;;;;;;;;;;5072447;28;20032;-64
2022/01/23 11:26:36;;;;;;;24.48;12.95;;;;;;;;;;5041825;28;20025;-64
2022/01/23 11:29:18;;;;;;;61.88;38.05;;;;;;;;;;5052946;28;20485;-65
2022/01/23 11:31:45;;;;;;;30.27;15.27;;;;;;;;;;5052932;28;20071;-63
2022/01/23 11:34:13;;;;;;;18.08;10.68;;;;;;;;;;5052831;28;20021;-64
2022/01/23 11:36:40;;;;;;;19.95;10.57;;;;;;;;;;5052422;28;20419;-64
2022/01/23 11:39:19;;;;;;;23.25;11.70;;;;;;;;;;5052782;28;20032;-63
2022/01/23 11:56:32;;;;;;;23.27;8.85;;;;;;;;;;5052495;28;20116;-65
2022/01/23 12:01:39;;;;;;;37.70;14.88;;;;;;;;;;5052660;28;20033;-64
2022/01/23 12:04:09;;;;;;;25.58;11.95;;;;;;;;;;5034796;28;20025;-65
2022/01/23 12:06:36;;;;;;;26.60;10.82;;;;;;;;;;5052531;28;20021;-64
2022/01/23 12:09:16;;;;;;;20.88;10.55;;;;;;;;;;5052841;28;20108;-65
2022/01/23 12:12:38;;;;;;;35.75;16.70;;;;;;;;;;5052505;28;20035;-66
2022/01/23 12:18:14;;;;;;;26.48;13.07;;;;;;;;;;5052316;28;20151;-65
2022/01/23 12:20:40;;;;;;;29.60;12.25;;;;;;;;;;5034493;28;20048;-64
2022/01/23 12:23:07;;;;;;;31.05;14.55;;;;;;;;;;5064617;28;20033;-66
2022/01/23 12:25:44;;;;;;;23.10;10.65;;;;;;;;;;5057648;28;20028;-65
2022/01/23 12:28:12;;;;;;;18.85;9.38;;;;;;;;;;5075664;28;20034;-65
2022/01/23 12:30:39;;;;;;;23.00;10.95;;;;;;;;;;5057428;28;20025;-65
2022/01/23 12:33:13;;;;;;;25.48;12.23;;;;;;;;;;5055202;28;20027;-65
2022/01/23 12:35:44;;;;;;;41.67;17.48;;;;;;;;;;5073998;28;20127;-66
2022/01/23 12:38:12;;;;;;;42.73;19.47;;;;;;;;;;5074876;28;20029;-67
2022/01/23 12:40:47;;;;;;;15.43;9.45;;;;;;;;;;5074487;28;20040;-66
2022/01/23 12:43:21;;;;;;;19.40;9.50;;;;;;;;;;5074055;28;20024;-65
2022/01/23 12:46:01;;;;;;;16.88;8.95;;;;;;;;;;5072282;28;20021;-65
2022/01/23 12:48:28;;;;;;;12.98;7.38;;;;;;;;;;5075607;28;20032;-66
2022/01/23 12:50:55;;;;;;;17.88;8.75;;;;;;;;;;5075855;28;20092;-65
2022/01/23 12:53:22;;;;;;;17.63;9.93;;;;;;;;;;5057599;28;20066;-66
2022/01/23 12:56:05;;;;;;;18.17;8.80;;;;;;;;;;5057554;28;20086;-65
2022/01/23 12:58:33;;;;;;;12.95;6.75;;;;;;;;;;5075456;28;20024;-66
2022/01/23 13:01:00;;;;;;;17.52;9.52;;;;;;;;;;5075343;28;20061;-66
2022/01/23 13:03:27;;;;;;;22.77;11.63;;;;;;;;;;5075176;28;20103;-66
2022/01/23 13:05:54;;;;;;;18.30;9.32;;;;;;;;;;5075329;28;20035;-66
2022/01/23 13:08:25;;;;;;;15.32;7.72;;;;;;;;;;5075127;28;20076;-64
2022/01/23 13:18:47;;;;;;;12.52;7.15;;;;;;;;;;5075219;28;20036;-68
2022/01/23 13:32:11;;;;;;;26.27;12.25;;;;;;;;;;5074500;28;20094;-66
2022/01/23 13:34:47;;;;;;;20.75;9.65;;;;;;;;;;5073740;28;20035;-65
2022/01/23 13:37:16;;;;;;;27.48;10.98;;;;;;;;;;5074799;28;20025;-67
2022/01/23 13:39:54;;;;;;;32.67;14.60;;;;;;;;;;5074713;28;20078;-67
2022/01/23 13:53:25;;;;;;;15.38;8.57;;;;;;;;;;5074448;28;20033;-67
2022/01/23 13:58:38;;;;;;;24.23;10.85;;;;;;;;;;5074106;28;20396;-68
2022/01/23 14:03:53;;;;;;;22.65;10.10;;;;;;;;;;5074333;28;20044;-66
2022/01/23 14:06:20;;;;;;;20.33;9.15;;;;;;;;;;5052273;28;20036;-65
2022/01/23 14:09:05;;;;;;;20.77;10.05;;;;;;;;;;5035780;28;20082;-68
2022/01/23 14:11:31;;;;;;;18.63;8.65;;;;;;;;;;5054045;28;20029;-67
2022/01/23 14:14:16;;;;;;;18.73;8.80;;;;;;;;;;5053809;28;20032;-66
2022/01/23 14:16:43;;;;;;;19.30;8.82;;;;;;;;;;5053969;28;20063;-66
2022/01/23 14:19:30;;;;;;;15.45;8.90;;;;;;;;;;5053866;28;20489;-65
2022/01/23 14:22:02;;;;;;;20.48;9.75;;;;;;;;;;5053662;28;20092;-65
2022/01/23 14:24:33;;;;;;;23.83;11.93;;;;;;;;;;5035834;28;20496;-64
2022/01/23 14:27:03;;;;;;;15.07;8.07;;;;;;;;;;5035751;28;20128;-66
2022/01/23 14:29:31;;;;;;;15.15;7.45;;;;;;;;;;5035853;28;20025;-66
2022/01/23 14:32:14;;;;;;;21.27;9.65;;;;;;;;;;5053779;28;20104;-68
2022/01/23 14:34:41;;;;;;;16.75;8.98;;;;;;;;;;5055480;28;20108;-67
2022/01/23 14:37:08;;;;;;;23.42;10.25;;;;;;;;;;5073629;28;20083;-66
2022/01/23 14:39:34;;;;;;;22.45;10.63;;;;;;;;;;5073611;28;20067;-67
2022/01/23 14:42:11;;;;;;;23.60;10.90;;;;;;;;;;5073542;28;20028;-67
2022/01/23 14:44:37;;;;;;;26.73;11.27;;;;;;;;;;5073423;28;20029;-69
2022/01/23 14:47:04;;;;;;;19.65;9.90;;;;;;;;;;5055221;28;20025;-66
2022/01/23 14:49:32;;;;;;;23.13;10.38;;;;;;;;;;5073405;28;20029;-68
2022/01/23 14:52:01;;;;;;;21.90;11.20;;;;;;;;;;5055424;28;20052;-68
2022/01/23 14:54:30;;;;;;;32.35;15.23;;;;;;;;;;5055460;28;20480;-65
2022/01/23 14:57:01;;;;;;;36.35;17.77;;;;;;;;;;5073311;28;20063;-69
2022/01/23 14:59:30;;;;;;;35.83;15.32;;;;;;;;;;5073329;28;20029;-67
2022/01/23 15:01:56;;;;;;;36.97;20.05;;;;;;;;;;5073243;28;20478;-67
2022/01/23 15:04:23;;;;;;;40.97;18.58;;;;;;;;;;5055269;28;20111;-67
2022/01/23 15:06:52;;;;;;;32.58;16.13;;;;;;;;;;5072897;28;20021;-69
2022/01/23 15:09:19;;;;;;;31.63;14.90;;;;;;;;;;5071309;28;20354;-68
2022/01/23 15:11:45;;;;;;;51.08;21.40;;;;;;;;;;5072258;28;20082;-66
2022/01/23 15:14:11;;;;;;;53.75;22.63;;;;;;;;;;5073094;28;20086;-66
2022/01/23 15:16:38;;;;;;;61.55;22.83;;;;;;;;;;5073063;28;20107;-67
2022/01/23 15:19:05;;;;;;;63.20;24.90;;;;;;;;;;5055049;28;20105;-67
2022/01/23 15:21:31;;;;;;;59.50;23.52;;;;;;;;;;5073038;28;20032;-69
2022/01/23 15:23:58;;;;;;;66.03;25.30;;;;;;;;;;5073338;28;20024;-67
2022/01/23 15:26:25;;;;;;;55.17;23.15;;;;;;;;;;5072974;28;20484;-67
2022/01/23 15:28:51;;;;;;;60.97;22.45;;;;;;;;;;5072857;28;20534;-68
2022/01/23 15:31:18;;;;;;;51.95;21.73;;;;;;;;;;5072691;28;20511;-67
2022/01/23 15:33:44;;;;;;;64.05;23.60;;;;;;;;;;5054894;28;20027;-68
2022/01/23 15:36:10;;;;;;;62.50;25.02;;;;;;;;;;5072855;28;20058;-68
2022/01/23 15:38:42;;;;;;;62.83;26.73;;;;;;;;;;5055024;28;20362;-69
2022/01/23 15:41:08;;;;;;;57.42;24.30;;;;;;;;;;5054902;28;20029;-67
2022/01/23 15:43:35;;;;;;;65.45;29.55;;;;;;;;;;5054800;28;20179;-68
2022/01/23 15:46:01;;;;;;;90.45;36.70;;;;;;;;;;5072746;28;20062;-67
2022/01/23 15:48:30;;;;;;;88.68;36.92;;;;;;;;;;5072599;28;20024;-68
2022/01/23 15:51:00;;;;;;;88.40;41.05;;;;;;;;;;5072657;28;20032;-67
2022/01/23 15:53:26;;;;;;;89.07;40.72;;;;;;;;;;5072729;28;20028;-67
2022/01/23 15:55:53;;;;;;;190.43;89.53;;;;;;;;;;5054678;28;20031;-70
2022/01/23 15:58:19;;;;;;;182.38;79.82;;;;;;;;;;5056632;28;20082;-66
2022/01/23 16:00:46;;;;;;;146.88;76.55;;;;;;;;;;5076609;28;20025;-69
2022/01/23 16:03:12;;;;;;;87.32;41.15;;;;;;;;;;5076558;28;20111;-68
2022/01/23 16:05:39;;;;;;;197.93;69.47;;;;;;;;;;5076546;28;20070;-67
2022/01/23 16:08:05;;;;;;;352.83;123.22;;;;;;;;;;5076148;28;20462;-68
2022/01/23 16:10:32;;;;;;;205.73;84.78;;;;;;;;;;5076668;28;20068;-67
2022/01/23 16:12:58;;;;;;;96.50;42.72;;;;;;;;;;5076383;28;20078;-68
2022/01/23 16:15:24;;;;;;;60.05;28.88;;;;;;;;;;5058291;28;20384;-68
2022/01/23 16:17:50;;;;;;;52.20;29.17;;;;;;;;;;5076283;28;20544;-66
2022/01/23 16:20:18;;;;;;;47.65;22.52;;;;;;;;;;5076253;28;20017;-67
2022/01/23 16:22:45;;;;;;;51.05;20.20;;;;;;;;;;5076198;28;20453;-68
2022/01/23 16:25:12;;;;;;;53.22;22.70;;;;;;;;;;5076176;28;20032;-66
2022/01/23 16:27:38;;;;;;;60.70;22.90;;;;;;;;;;5058040;28;20031;-66
2022/01/23 16:30:05;;;;;;;66.20;25.92;;;;;;;;;;5076293;28;20464;-68
2022/01/23 16:32:32;;;;;;;68.90;25.30;;;;;;;;;;5075721;28;20028;-67
2022/01/23 16:34:58;;;;;;;71.10;28.02;;;;;;;;;;5075747;28;20048;-67
2022/01/23 16:37:24;;;;;;;71.90;27.48;;;;;;;;;;5057936;28;20028;-68
2022/01/23 16:39:51;;;;;;;78.00;29.60;;;;;;;;;;5075835;28;20074;-69
2022/01/23 16:42:17;;;;;;;84.50;32.90;;;;;;;;;;5075784;28;20520;-68
2022/01/23 16:44:44;;;;;;;84.55;37.83;;;;;;;;;;5057692;28;20523;-68
2022/01/23 16:47:12;;;;;;;87.30;40.17;;;;;;;;;;5075622;28;20028;-67
2022/01/23 16:49:39;;;;;;;161.55;62.20;;;;;;;;;;5057626;28;20032;-65
2022/01/23 16:52:09;;;;;;;128.07;52.95;;;;;;;;;;5055406;28;20056;-67
2022/01/23 16:54:36;;;;;;;113.13;51.60;;;;;;;;;;5057592;28;20449;-69
2022/01/23 16:57:02;;;;;;;75.80;34.95;;;;;;;;;;5075193;28;20024;-68
2022/01/23 16:59:29;;;;;;;68.03;29.50;;;;;;;;;;5057763;28;20494;-68
2022/01/23 17:01:55;;;;;;;53.83;26.65;;;;;;;;;;5072781;28;20494;-68
2022/01/23 17:04:21;;;;;;;50.33;24.70;;;;;;;;;;5074505;28;20073;-68
2022/01/23 17:06:48;;;;;;;56.72;27.00;;;;;;;;;;5056414;28;20095;-66